Time;durP1;ratioP1;P1;durP2;ratioP2;P2;SDS_P1;SDS_P2;PMS_P1;PMS_P2;Temp;Humidity;BMP_temperature;BMP_pressure;BME280_temperature;BME280_humidity;BME280_pressure;Samples;Min_cycle;Max_cycle;Signal;HPM_P1;HPM_P2
2021/01/09 00:01:21;;;;;;;14.90;8.80;;;3.10;99.90;;;;;;5034454;28;20171;-73
2021/01/09 00:03:47;;;;;;;13.70;8.73;;;3.10;99.90;;;;;;5034388;28;20515;-74
2021/01/09 00:06:13;;;;;;;14.20;9.00;;;3.10;99.90;;;;;;5034393;28;20176;-75
2021/01/09 00:08:39;;;;;;;13.67;8.40;;;3.20;99.90;;;;;;5034545;28;20268;-75
2021/01/09 00:11:05;;;;;;;14.90;9.63;;;3.20;99.90;;;;;;5034422;28;20250;-73
2021/01/09 00:13:31;;;;;;;14.20;9.07;;;3.10;99.90;;;;;;5034489;28;20449;-73
2021/01/09 00:15:57;;;;;;;12.87;8.73;;;3.10;99.90;;;;;;5034400;28;20436;-74
2021/01/09 00:18:22;;;;;;;16.60;10.73;;;3.20;99.90;;;;;;5034152;28;20457;-73
2021/01/09 00:20:49;;;;;;;17.37;9.60;;;3.10;99.90;;;;;;5033999;28;20179;-73
2021/01/09 00:23:14;;;;;;;22.17;10.70;;;3.00;99.90;;;;;;5034036;28;20214;-73
2021/01/09 00:25:40;;;;;;;14.70;8.93;;;3.00;99.90;;;;;;5036791;28;20779;-73
2021/01/09 00:28:06;;;;;;;14.53;9.43;;;3.00;99.90;;;;;;5032792;28;20258;-73
2021/01/09 00:30:32;;;;;;;13.73;10.47;;;3.10;99.90;;;;;;5033799;28;20182;-73
2021/01/09 00:32:57;;;;;;;11.40;9.33;;;3.10;99.90;;;;;;5034231;28;20253;-73
2021/01/09 00:35:23;;;;;;;14.23;10.20;;;3.10;99.90;;;;;;5033892;28;20419;-73
2021/01/09 00:37:49;;;;;;;13.77;9.03;;;3.10;99.90;;;;;;5027891;28;20196;-75
2021/01/09 00:40:15;;;;;;;16.10;9.87;;;3.20;99.90;;;;;;5034827;28;20515;-74
2021/01/09 00:42:42;;;;;;;19.63;10.27;;;3.10;99.90;;;;;;5033758;28;20266;-73
2021/01/09 00:45:09;;;;;;;11.97;8.90;;;3.10;99.90;;;;;;5033682;28;20501;-74
2021/01/09 00:47:35;;;;;;;16.00;10.10;;;3.20;99.90;;;;;;5034053;28;20463;-74
2021/01/09 00:50:01;;;;;;;13.10;9.47;;;3.20;99.90;;;;;;5033937;28;20438;-73
2021/01/09 00:52:27;;;;;;;15.13;11.13;;;3.20;99.90;;;;;;5032855;28;20479;-75
2021/01/09 00:54:52;;;;;;;14.80;9.83;;;3.10;99.90;;;;;;5034197;28;20418;-73
2021/01/09 00:57:18;;;;;;;18.63;11.43;;;3.10;99.90;;;;;;5032623;28;20206;-74
2021/01/09 00:59:44;;;;;;;14.33;9.83;;;3.00;99.90;;;;;;5033716;28;20237;-74
2021/01/09 01:02:09;;;;;;;16.07;10.40;;;3.00;99.90;;;;;;5032504;28;20625;-73
2021/01/09 01:04:35;;;;;;;16.20;10.13;;;3.00;99.90;;;;;;5033490;28;20672;-73
2021/01/09 01:07:01;;;;;;;17.20;9.53;;;3.00;99.90;;;;;;5032354;28;21160;-74
2021/01/09 01:09:26;;;;;;;14.73;9.43;;;3.00;99.90;;;;;;5032285;28;20219;-74
2021/01/09 01:11:52;;;;;;;18.57;10.60;;;3.00;99.90;;;;;;5033415;28;20186;-74
2021/01/09 01:14:18;;;;;;;14.77;10.13;;;3.00;99.90;;;;;;5033145;28;20199;-73
2021/01/09 01:16:46;;;;;;;14.17;10.47;;;3.00;99.90;;;;;;5034667;28;20207;-74
2021/01/09 01:19:12;;;;;;;20.17;10.67;;;3.10;99.90;;;;;;5029416;28;20564;-73
2021/01/09 01:21:38;;;;;;;17.87;10.30;;;3.10;99.90;;;;;;5032201;28;20442;-74
2021/01/09 01:24:04;;;;;;;14.40;9.33;;;3.10;99.90;;;;;;5032928;28;20598;-74
2021/01/09 01:26:30;;;;;;;17.73;11.37;;;3.00;99.90;;;;;;5040501;28;20444;-74
2021/01/09 01:28:56;;;;;;;18.70;10.80;;;3.00;99.90;;;;;;5037253;28;20853;-74
2021/01/09 01:31:24;;;;;;;14.53;11.07;;;3.10;99.90;;;;;;5032901;28;20180;-74
2021/01/09 01:33:50;;;;;;;19.03;10.83;;;2.90;99.90;;;;;;5033038;28;20204;-73
2021/01/09 01:36:16;;;;;;;16.53;10.30;;;3.00;99.90;;;;;;5032917;28;20421;-74
2021/01/09 01:38:42;;;;;;;16.83;11.07;;;3.10;99.90;;;;;;5034815;28;20834;-74
2021/01/09 01:41:09;;;;;;;17.60;10.63;;;3.10;99.90;;;;;;5033055;28;20420;-74
2021/01/09 01:43:36;;;;;;;17.80;10.93;;;3.10;99.90;;;;;;5034010;28;20256;-73
2021/01/09 01:46:03;;;;;;;14.20;10.50;;;3.10;99.90;;;;;;5031882;28;20430;-74
2021/01/09 01:48:30;;;;;;;13.20;9.80;;;3.00;99.90;;;;;;5035481;28;20522;-74
2021/01/09 01:50:56;;;;;;;14.17;10.57;;;3.00;99.90;;;;;;5032525;28;20920;-74
2021/01/09 01:53:22;;;;;;;15.17;10.80;;;3.10;99.90;;;;;;5032404;28;20430;-74
2021/01/09 01:55:49;;;;;;;16.30;11.20;;;3.00;99.90;;;;;;5064754;28;20415;-74
2021/01/09 01:58:15;;;;;;;16.70;11.10;;;3.00;99.90;;;;;;5032853;28;20449;-74
2021/01/09 02:00:46;;;;;;;15.60;10.00;;;3.10;99.90;;;;;;5032737;28;20464;-73
2021/01/09 02:03:12;;;;;;;13.83;10.00;;;3.10;99.90;;;;;;5031449;28;20201;-74
2021/01/09 02:05:42;;;;;;;17.73;10.03;;;3.10;99.90;;;;;;5032120;28;20924;-74
2021/01/09 02:08:12;;;;;;;12.77;8.97;;;3.10;99.90;;;;;;5021292;28;20431;-74
2021/01/09 02:10:42;;;;;;;12.90;9.23;;;3.10;99.90;;;;;;5019530;28;20430;-73
2021/01/09 02:13:14;;;;;;;13.23;9.93;;;3.10;99.90;;;;;;5032096;28;20521;-73
2021/01/09 02:15:41;;;;;;;14.70;9.13;;;3.10;99.90;;;;;;5032592;28;20555;-74
2021/01/09 02:18:07;;;;;;;14.70;9.87;;;3.20;99.90;;;;;;5031693;28;20457;-74
2021/01/09 02:20:35;;;;;;;16.70;9.37;;;3.20;99.90;;;;;;5031370;28;20423;-73
2021/01/09 02:23:02;;;;;;;17.00;9.97;;;3.20;99.90;;;;;;5022819;28;20972;-74
2021/01/09 02:25:28;;;;;;;17.07;10.07;;;3.20;99.90;;;;;;5012558;28;20513;-73
2021/01/09 02:27:54;;;;;;;13.20;9.17;;;3.20;99.90;;;;;;5020294;28;20455;-73
2021/01/09 02:30:27;;;;;;;13.70;10.30;;;3.20;99.90;;;;;;5030197;28;20270;-73
2021/01/09 02:33:11;;;;;;;13.63;9.60;;;3.10;99.90;;;;;;5032052;28;20450;-73
2021/01/09 02:35:39;;;;;;;15.10;10.57;;;3.10;99.90;;;;;;5032249;28;20477;-73
2021/01/09 02:38:06;;;;;;;19.63;10.80;;;3.10;99.90;;;;;;5031584;28;20672;-74
2021/01/09 02:40:39;;;;;;;17.03;10.87;;;3.10;99.90;;;;;;5031774;28;20418;-73
2021/01/09 02:43:04;;;;;;;14.20;10.00;;;3.10;99.90;;;;;;5032003;28;20504;-74
2021/01/09 02:45:30;;;;;;;19.43;11.97;;;3.10;99.90;;;;;;5032141;28;20500;-73
2021/01/09 02:47:56;;;;;;;16.70;11.50;;;3.00;99.90;;;;;;5031775;28;20187;-73
2021/01/09 02:50:21;;;;;;;16.50;10.97;;;3.00;99.90;;;;;;5031742;28;20442;-73
2021/01/09 02:52:47;;;;;;;15.93;12.63;;;3.00;99.90;;;;;;5031634;28;20203;-76
2021/01/09 02:55:13;;;;;;;18.77;11.73;;;2.90;99.90;;;;;;5032046;28;20201;-73
2021/01/09 02:57:38;;;;;;;13.53;10.87;;;2.90;99.90;;;;;;5018661;28;20195;-76
2021/01/09 03:00:05;;;;;;;16.87;11.53;;;3.00;99.90;;;;;;5032073;28;20227;-73
2021/01/09 03:02:30;;;;;;;14.70;10.87;;;2.90;99.90;;;;;;5030357;28;20267;-73
2021/01/09 03:04:56;;;;;;;16.77;11.17;;;3.00;99.90;;;;;;5031397;28;20509;-73
2021/01/09 03:07:22;;;;;;;14.60;10.07;;;3.10;99.90;;;;;;5026027;28;20616;-73
2021/01/09 03:09:47;;;;;;;13.07;9.90;;;3.10;99.90;;;;;;5031040;28;20183;-74
2021/01/09 03:12:13;;;;;;;19.90;11.43;;;3.10;99.90;;;;;;5030375;28;20190;-73
2021/01/09 03:14:38;;;;;;;13.90;10.03;;;3.20;99.90;;;;;;5027042;28;20615;-74
2021/01/09 03:17:04;;;;;;;15.63;10.27;;;3.20;99.90;;;;;;5031540;28;20199;-74
2021/01/09 03:19:29;;;;;;;17.27;9.30;;;3.20;99.90;;;;;;5031735;28;20217;-73
2021/01/09 03:21:55;;;;;;;12.63;9.47;;;3.20;99.90;;;;;;5031619;28;20176;-73
2021/01/09 03:24:21;;;;;;;13.83;8.77;;;3.20;99.90;;;;;;5030695;28;20199;-74
2021/01/09 03:26:47;;;;;;;17.90;10.07;;;3.20;99.90;;;;;;5031610;28;20185;-73
2021/01/09 03:29:13;;;;;;;13.30;9.00;;;3.10;99.90;;;;;;5031128;28;20422;-73
2021/01/09 03:31:38;;;;;;;19.47;10.23;;;3.20;99.90;;;;;;5030134;28;20270;-73
2021/01/09 03:34:04;;;;;;;16.30;9.73;;;3.20;99.90;;;;;;5035342;28;20519;-74
2021/01/09 03:36:30;;;;;;;16.60;10.47;;;3.30;99.90;;;;;;5026884;28;20173;-74
2021/01/09 03:38:55;;;;;;;14.10;10.20;;;3.30;99.90;;;;;;5031247;28;20257;-74
2021/01/09 03:41:21;;;;;;;17.43;10.87;;;3.30;99.90;;;;;;5035121;28;20175;-74
2021/01/09 03:43:47;;;;;;;13.67;9.07;;;3.40;99.90;;;;;;5030162;28;20206;-74
2021/01/09 03:46:12;;;;;;;27.13;10.50;;;3.50;99.90;;;;;;5035170;28;20248;-74
2021/01/09 03:48:38;;;;;;;15.13;10.90;;;3.50;99.90;;;;;;5034973;28;20241;-74
2021/01/09 03:51:03;;;;;;;27.13;10.47;;;3.50;99.90;;;;;;5062619;28;20233;-74
2021/01/09 03:53:29;;;;;;;21.90;12.40;;;3.50;99.90;;;;;;5030989;28;20569;-74
2021/01/09 03:55:55;;;;;;;18.47;10.70;;;3.50;99.90;;;;;;5035021;28;20655;-74
2021/01/09 03:58:20;;;;;;;20.30;11.37;;;3.50;99.90;;;;;;5022773;28;20199;-74
2021/01/09 04:00:46;;;;;;;17.27;10.60;;;3.50;99.90;;;;;;5025580;28;20229;-73
2021/01/09 04:03:11;;;;;;;21.90;12.17;;;3.40;99.90;;;;;;5033380;28;20333;-74
2021/01/09 04:05:37;;;;;;;15.60;10.63;;;3.40;99.90;;;;;;5034794;28;20179;-73
2021/01/09 04:08:03;;;;;;;24.93;14.17;;;3.40;99.90;;;;;;5034557;28;20180;-73
2021/01/09 04:10:30;;;;;;;18.10;11.90;;;3.30;99.90;;;;;;5034524;28;20456;-73
2021/01/09 04:12:55;;;;;;;16.47;11.37;;;3.30;99.90;;;;;;5028886;28;20447;-74
2021/01/09 04:15:21;;;;;;;17.50;10.37;;;3.40;99.90;;;;;;5034731;28;20414;-73
2021/01/09 04:17:47;;;;;;;20.83;11.53;;;3.30;99.90;;;;;;5028082;28;20200;-74
2021/01/09 04:20:12;;;;;;;16.60;10.60;;;3.30;99.90;;;;;;5024813;28;20242;-73
2021/01/09 04:22:38;;;;;;;19.40;10.83;;;3.30;99.90;;;;;;5032044;28;20180;-74
2021/01/09 04:25:04;;;;;;;21.60;11.53;;;3.30;99.90;;;;;;5034570;28;20468;-73
2021/01/09 04:27:30;;;;;;;20.40;12.57;;;3.30;99.90;;;;;;5030469;28;20734;-74
2021/01/09 04:29:55;;;;;;;22.20;13.00;;;3.30;99.90;;;;;;5016734;28;20462;-73
2021/01/09 04:32:21;;;;;;;24.00;13.10;;;3.30;99.90;;;;;;5034110;28;20222;-74
2021/01/09 04:34:48;;;;;;;22.80;12.90;;;3.30;99.90;;;;;;5029691;28;20270;-74
2021/01/09 04:37:14;;;;;;;28.60;14.50;;;3.40;99.90;;;;;;5015946;28;20231;-73
2021/01/09 04:39:40;;;;;;;26.20;12.07;;;3.40;99.90;;;;;;5034048;28;20826;-74
2021/01/09 04:42:06;;;;;;;23.40;13.27;;;3.40;99.90;;;;;;5033870;28;20949;-73
2021/01/09 04:44:31;;;;;;;22.63;12.40;;;3.40;99.90;;;;;;5032578;28;20202;-74
2021/01/09 04:46:59;;;;;;;20.53;10.83;;;3.40;99.90;;;;;;5026574;28;21220;-73
2021/01/09 04:49:26;;;;;;;20.03;10.80;;;3.50;99.90;;;;;;5013095;28;20169;-74
2021/01/09 04:51:53;;;;;;;20.87;13.03;;;3.50;99.90;;;;;;5025559;28;20423;-74
2021/01/09 04:54:21;;;;;;;20.87;13.70;;;3.50;99.90;;;;;;5030270;28;20525;-74
2021/01/09 04:56:49;;;;;;;34.23;15.90;;;3.60;99.90;;;;;;5031964;28;20481;-74
2021/01/09 04:59:19;;;;;;;34.87;15.83;;;3.50;99.90;;;;;;5034019;28;20497;-74
2021/01/09 05:01:47;;;;;;;41.47;16.33;;;3.50;99.90;;;;;;5032064;28;20421;-74
2021/01/09 05:04:14;;;;;;;31.07;14.77;;;3.50;99.90;;;;;;5014552;28;20438;-73
2021/01/09 05:06:41;;;;;;;25.47;15.90;;;3.50;99.90;;;;;;5013927;28;20421;-74
2021/01/09 05:09:07;;;;;;;30.10;15.30;;;3.50;99.90;;;;;;5031176;28;20776;-74
2021/01/09 05:11:38;;;;;;;29.57;16.80;;;3.60;99.90;;;;;;5025218;28;20523;-74
2021/01/09 05:14:04;;;;;;;27.50;14.50;;;3.60;99.90;;;;;;5033230;28;20427;-73
2021/01/09 05:16:30;;;;;;;27.47;15.93;;;3.60;99.90;;;;;;5033276;28;20437;-74
2021/01/09 05:18:56;;;;;;;33.80;16.00;;;3.60;99.90;;;;;;5033280;28;20450;-74
2021/01/09 05:21:22;;;;;;;28.70;16.70;;;3.70;99.90;;;;;;5030825;28;20935;-74
2021/01/09 05:23:55;;;;;;;28.90;16.07;;;3.70;99.90;;;;;;5033184;28;20187;-74
2021/01/09 05:26:22;;;;;;;30.47;16.47;;;3.70;99.90;;;;;;5032276;28;20945;-74
2021/01/09 05:28:53;;;;;;;35.50;18.80;;;3.70;99.90;;;;;;5032667;28;20950;-74
2021/01/09 05:31:20;;;;;;;29.23;15.73;;;3.70;99.90;;;;;;5032613;28;20863;-74
2021/01/09 05:33:47;;;;;;;32.97;16.33;;;3.70;99.90;;;;;;5033186;28;20796;-74
2021/01/09 05:36:13;;;;;;;26.50;19.00;;;3.70;99.90;;;;;;5028536;28;20487;-74
2021/01/09 05:38:41;;;;;;;27.03;15.47;;;3.80;99.90;;;;;;5028631;28;20454;-73
2021/01/09 05:41:10;;;;;;;27.77;15.80;;;3.80;99.90;;;;;;5032717;28;20413;-74
2021/01/09 05:43:36;;;;;;;34.07;16.30;;;3.80;99.90;;;;;;5032832;28;20479;-74
2021/01/09 05:46:03;;;;;;;28.10;16.87;;;3.80;99.90;;;;;;5032919;28;20394;-74
2021/01/09 05:48:31;;;;;;;30.00;16.13;;;3.90;99.90;;;;;;5064003;28;20939;-74
2021/01/09 05:50:58;;;;;;;28.97;15.53;;;3.90;99.90;;;;;;5019263;28;20441;-73
2021/01/09 05:53:44;;;;;;;32.47;18.00;;;3.90;99.90;;;;;;5032817;28;20907;-74
2021/01/09 05:56:14;;;;;;;31.93;15.80;;;3.80;99.90;;;;;;5031974;28;20784;-74
2021/01/09 05:58:40;;;;;;;35.47;18.27;;;3.80;99.90;;;;;;5032439;28;20927;-74
2021/01/09 06:01:11;;;;;;;29.80;18.13;;;3.80;99.90;;;;;;5031906;28;20422;-74
2021/01/09 06:04:04;;;;;;;36.87;18.77;;;3.80;99.90;;;;;;5032581;28;20973;-74
2021/01/09 06:06:45;;;;;;;30.23;18.43;;;3.80;99.90;;;;;;5011670;28;20431;-74
2021/01/09 06:09:20;;;;;;;29.63;17.57;;;3.80;99.90;;;;;;5022933;28;20434;-73
2021/01/09 06:11:47;;;;;;;33.30;16.73;;;3.90;99.90;;;;;;5032134;28;20439;-73
2021/01/09 06:14:14;;;;;;;31.00;18.60;;;3.80;99.90;;;;;;5029443;28;20460;-73
2021/01/09 06:16:41;;;;;;;34.50;19.67;;;3.80;99.90;;;;;;5031181;28;20438;-73
2021/01/09 06:19:08;;;;;;;31.60;19.10;;;3.70;99.90;;;;;;5030561;28;20477;-74
2021/01/09 06:21:36;;;;;;;37.33;20.70;;;3.80;99.90;;;;;;5030886;28;20418;-73
2021/01/09 06:24:03;;;;;;;42.10;20.87;;;3.80;99.90;;;;;;5032319;28;20418;-73
2021/01/09 06:26:30;;;;;;;43.43;22.17;;;3.80;99.90;;;;;;5029837;28;20425;-74
2021/01/09 06:29:03;;;;;;;48.83;23.33;;;3.80;99.90;;;;;;5032018;28;20414;-74
2021/01/09 06:31:29;;;;;;;41.73;22.47;;;3.80;99.90;;;;;;5030438;28;20414;-74
2021/01/09 06:34:00;;;;;;;52.10;22.03;;;3.80;99.90;;;;;;5030252;28;20507;-74
2021/01/09 06:36:26;;;;;;;50.33;21.53;;;3.80;99.90;;;;;;5031222;28;20492;-74
2021/01/09 06:38:56;;;;;;;57.37;25.50;;;3.80;99.90;;;;;;5031576;28;20464;-74
2021/01/09 06:41:24;;;;;;;46.67;24.03;;;3.80;99.90;;;;;;5028977;28;20514;-73
2021/01/09 06:43:52;;;;;;;47.13;24.00;;;3.80;99.90;;;;;;5021671;28;20438;-73
2021/01/09 06:46:35;;;;;;;45.07;22.00;;;3.80;99.90;;;;;;5031964;28;20452;-74
2021/01/09 06:49:02;;;;;;;57.60;23.60;;;3.70;99.90;;;;;;5012438;28;20449;-73
2021/01/09 06:51:38;;;;;;;49.07;24.17;;;3.70;99.90;;;;;;5029376;28;20450;-74
2021/01/09 06:54:25;;;;;;;49.50;24.30;;;3.50;99.90;;;;;;5018239;28;20438;-73
2021/01/09 06:57:10;;;;;;;54.73;22.87;;;3.40;99.90;;;;;;5031433;28;20472;-74
2021/01/09 06:59:40;;;;;;;68.90;25.27;;;3.40;99.90;;;;;;5032019;28;20391;-73
2021/01/09 07:02:09;;;;;;;63.77;23.90;;;3.40;99.90;;;;;;5026507;28;20459;-74
2021/01/09 07:04:57;;;;;;;73.80;28.17;;;3.40;99.90;;;;;;5031056;28;20466;-73
2021/01/09 07:07:29;;;;;;;55.67;24.50;;;3.50;99.90;;;;;;5033095;28;20417;-74
2021/01/09 07:10:01;;;;;;;60.30;24.90;;;3.50;99.90;;;;;;5031168;28;20429;-73
2021/01/09 07:12:28;;;;;;;49.87;24.90;;;3.50;99.90;;;;;;5026864;28;20941;-74
2021/01/09 07:14:57;;;;;;;62.87;27.13;;;3.50;99.90;;;;;;5035930;28;20451;-74
2021/01/09 07:17:27;;;;;;;61.00;26.83;;;3.50;99.90;;;;;;5034094;28;20450;-73
2021/01/09 07:19:53;;;;;;;67.83;27.20;;;3.50;99.90;;;;;;5026167;28;20411;-74
2021/01/09 07:22:20;;;;;;;65.10;27.50;;;3.50;99.90;;;;;;5030606;28;20422;-74
2021/01/09 07:24:47;;;;;;;54.90;25.00;;;3.50;99.90;;;;;;5035386;28;20935;-73
2021/01/09 07:27:17;;;;;;;68.37;26.63;;;3.50;99.90;;;;;;5033114;28;20429;-74
2021/01/09 07:29:43;;;;;;;60.77;24.37;;;3.50;99.90;;;;;;5024861;28;20422;-74
2021/01/09 07:32:09;;;;;;;52.27;23.53;;;3.40;99.90;;;;;;5027083;28;20935;-74
2021/01/09 07:34:36;;;;;;;53.50;22.80;;;3.40;99.90;;;;;;5031764;28;20478;-73
2021/01/09 07:37:02;;;;;;;56.17;24.23;;;3.40;99.90;;;;;;5015647;28;20430;-74
2021/01/09 07:39:28;;;;;;;45.37;23.10;;;3.40;99.90;;;;;;5029560;28;20421;-74
2021/01/09 07:41:55;;;;;;;57.97;26.33;;;3.40;99.90;;;;;;5032742;28;20947;-73
2021/01/09 07:44:23;;;;;;;67.50;28.53;;;3.50;99.90;;;;;;5033750;28;21037;-75
2021/01/09 07:47:00;;;;;;;59.50;27.87;;;3.30;99.90;;;;;;5029050;28;20442;-74
2021/01/09 07:49:30;;;;;;;62.70;26.50;;;3.40;99.90;;;;;;5033121;28;20433;-74
2021/01/09 07:52:05;;;;;;;58.80;26.70;;;3.30;99.90;;;;;;5032494;28;20422;-73
2021/01/09 07:54:39;;;;;;;74.10;28.27;;;3.30;99.90;;;;;;5033639;28;20452;-73
2021/01/09 07:57:20;;;;;;;62.30;25.20;;;3.30;99.90;;;;;;5034153;28;20525;-73
2021/01/09 07:59:54;;;;;;;74.00;28.50;;;3.20;99.90;;;;;;5033058;28;20935;-75
2021/01/09 08:02:33;;;;;;;66.57;25.13;;;3.20;99.90;;;;;;5038132;28;20567;-75
2021/01/09 08:05:21;;;;;;;96.30;30.47;;;3.20;99.90;;;;;;5016190;28;20431;-73
2021/01/09 08:07:57;;;;;;;60.87;24.87;;;3.20;99.90;;;;;;5034240;28;20426;-74
2021/01/09 08:10:29;;;;;;;69.27;28.77;;;3.10;99.90;;;;;;5044364;28;20788;-73
2021/01/09 08:12:57;;;;;;;91.70;30.37;;;3.20;99.90;;;;;;5034656;28;21018;-73
2021/01/09 08:15:24;;;;;;;73.37;27.37;;;3.20;99.90;;;;;;5034635;28;20402;-73
2021/01/09 08:17:49;;;;;;;63.53;28.90;;;3.20;99.90;;;;;;5033109;28;20548;-73
2021/01/09 08:20:16;;;;;;;60.23;27.93;;;3.30;99.90;;;;;;5033119;28;20497;-73
2021/01/09 08:23:04;;;;;;;56.97;24.97;;;3.40;99.90;;;;;;5031868;28;20160;-73
2021/01/09 08:25:35;;;;;;;53.93;25.73;;;3.40;99.90;;;;;;5040195;28;20460;-73
2021/01/09 08:28:02;;;;;;;63.20;24.83;;;3.30;99.90;;;;;;5046397;28;20931;-73
2021/01/09 08:30:33;;;;;;;53.10;23.00;;;3.40;99.90;;;;;;5031135;28;20490;-73
2021/01/09 08:33:14;;;;;;;65.10;25.33;;;3.50;99.90;;;;;;5034411;28;20537;-73
2021/01/09 08:35:46;;;;;;;43.33;22.47;;;3.60;99.90;;;;;;5029851;28;20801;-73
2021/01/09 08:38:12;;;;;;;48.00;21.20;;;3.60;99.90;;;;;;5032666;28;20454;-73
2021/01/09 08:40:37;;;;;;;47.43;20.40;;;3.60;99.90;;;;;;5065820;28;20429;-73
2021/01/09 08:43:07;;;;;;;41.90;18.90;;;3.70;99.90;;;;;;5033828;28;20433;-74
2021/01/09 08:45:45;;;;;;;38.97;18.60;;;3.70;99.90;;;;;;5033936;28;20171;-74
2021/01/09 08:48:13;;;;;;;42.20;18.93;;;3.70;99.90;;;;;;5032562;28;20461;-73
2021/01/09 08:50:46;;;;;;;41.47;21.50;;;3.70;99.90;;;;;;5031861;28;20429;-74
2021/01/09 08:53:12;;;;;;;44.33;19.97;;;3.70;99.90;;;;;;5029942;28;20481;-74
2021/01/09 08:55:38;;;;;;;41.83;19.27;;;3.70;99.90;;;;;;5032479;28;20432;-74
2021/01/09 08:58:15;;;;;;;55.47;21.20;;;3.60;99.90;;;;;;5032353;28;20858;-73
2021/01/09 09:00:41;;;;;;;44.70;21.27;;;3.60;99.90;;;;;;5033296;28;20927;-75
2021/01/09 09:03:08;;;;;;;46.00;19.10;;;3.60;99.90;;;;;;5046768;28;20437;-74
2021/01/09 09:05:35;;;;;;;39.63;22.70;;;3.60;99.90;;;;;;5026938;28;20675;-74
2021/01/09 09:08:03;;;;;;;56.23;19.60;;;3.60;99.90;;;;;;5033163;28;20536;-74
2021/01/09 09:10:31;;;;;;;31.97;17.13;;;3.40;99.90;;;;;;5033262;28;20935;-74
2021/01/09 09:13:16;;;;;;;37.20;17.50;;;3.30;99.90;;;;;;5033547;28;20500;-73
2021/01/09 09:15:42;;;;;;;44.93;16.27;;;3.20;99.90;;;;;;5033268;28;20422;-74
2021/01/09 09:18:10;;;;;;;39.20;19.30;;;3.20;99.90;;;;;;5032756;28;20962;-74
2021/01/09 09:20:36;;;;;;;49.53;19.57;;;3.40;99.90;;;;;;5032766;28;20175;-74
2021/01/09 09:23:23;;;;;;;37.90;16.40;;;3.10;99.90;;;;;;5032182;28;20441;-73
2021/01/09 09:26:13;;;;;;;46.63;20.23;;;3.20;99.90;;;;;;5038804;28;20428;-73
2021/01/09 09:28:46;;;;;;;36.17;18.83;;;3.40;99.90;;;;;;5035984;28;20426;-74
2021/01/09 09:31:19;;;;;;;38.43;16.67;;;3.40;99.90;;;;;;5032346;28;20406;-73
2021/01/09 09:33:59;;;;;;;37.33;17.27;;;3.50;99.90;;;;;;5033260;28;20446;-74
2021/01/09 09:36:26;;;;;;;43.83;19.60;;;3.40;99.90;;;;;;5032795;28;20463;-74
2021/01/09 09:38:52;;;;;;;38.33;18.30;;;3.40;99.90;;;;;;5032311;28;20541;-74
2021/01/09 09:41:18;;;;;;;35.60;19.00;;;3.50;99.90;;;;;;5034368;28;20395;-75
2021/01/09 09:44:02;;;;;;;50.37;20.80;;;3.50;99.90;;;;;;5034243;28;20434;-75
2021/01/09 09:46:39;;;;;;;46.97;21.83;;;3.30;99.90;;;;;;5046979;28;20449;-74
2021/01/09 09:49:04;;;;;;;55.13;29.70;;;3.40;99.90;;;;;;5052468;28;20407;-74
2021/01/09 09:51:37;;;;;;;45.37;21.67;;;3.20;99.90;;;;;;5032061;28;20992;-73
2021/01/09 09:54:03;;;;;;;45.63;21.37;;;3.20;99.90;;;;;;5032449;28;20192;-73
2021/01/09 09:56:37;;;;;;;45.53;21.40;;;3.20;99.90;;;;;;5032624;28;20782;-73
2021/01/09 09:59:08;;;;;;;50.30;24.50;;;3.40;99.90;;;;;;5038009;28;20454;-73
2021/01/09 10:01:34;;;;;;;60.07;28.00;;;3.50;99.90;;;;;;5030917;28;20935;-74
2021/01/09 10:04:01;;;;;;;59.30;27.00;;;3.50;99.90;;;;;;5029698;28;20593;-73
2021/01/09 10:06:36;;;;;;;50.37;23.90;;;3.60;99.90;;;;;;5027607;28;20919;-73
2021/01/09 10:09:09;;;;;;;49.53;23.73;;;3.60;99.90;;;;;;5029725;28;20413;-73
2021/01/09 10:11:35;;;;;;;45.27;23.97;;;3.60;99.90;;;;;;5031998;28;20414;-73
2021/01/09 10:14:04;;;;;;;42.87;22.63;;;3.60;99.90;;;;;;5031871;28;20973;-73
2021/01/09 10:16:30;;;;;;;49.80;22.17;;;3.80;99.90;;;;;;5031971;28;20218;-73
2021/01/09 10:18:56;;;;;;;56.47;22.40;;;3.80;99.90;;;;;;5032217;28;20969;-74
2021/01/09 10:21:26;;;;;;;41.80;20.37;;;3.80;99.90;;;;;;5030320;28;20422;-74
2021/01/09 10:23:52;;;;;;;42.93;21.50;;;3.80;99.90;;;;;;5031450;28;20273;-73
2021/01/09 10:26:35;;;;;;;41.67;21.57;;;3.80;99.90;;;;;;5031757;28;20461;-73
2021/01/09 10:29:03;;;;;;;50.77;22.77;;;3.90;99.90;;;;;;5031998;28;20702;-73
2021/01/09 10:31:29;;;;;;;43.40;23.50;;;4.00;99.90;;;;;;5031866;28;20402;-74
2021/01/09 10:33:55;;;;;;;48.77;23.97;;;4.00;99.90;;;;;;5031606;28;20439;-73
2021/01/09 10:36:25;;;;;;;48.67;23.00;;;4.10;99.90;;;;;;5031603;28;20430;-73
2021/01/09 10:38:50;;;;;;;50.33;23.00;;;4.20;99.90;;;;;;5031880;28;20195;-73
2021/01/09 10:41:16;;;;;;;51.47;23.47;;;4.20;99.90;;;;;;5031319;28;20446;-73
2021/01/09 10:43:42;;;;;;;51.40;22.47;;;4.20;99.90;;;;;;5031410;28;20604;-73
2021/01/09 10:46:07;;;;;;;54.13;24.90;;;4.20;99.90;;;;;;5031369;28;20183;-73
2021/01/09 10:48:34;;;;;;;49.33;25.33;;;4.20;99.90;;;;;;5031438;28;20190;-73
2021/01/09 10:51:00;;;;;;;61.07;27.60;;;4.00;99.90;;;;;;5031621;28;20171;-73
2021/01/09 10:53:25;;;;;;;58.17;26.30;;;3.90;99.90;;;;;;5030465;28;20537;-73
2021/01/09 10:55:55;;;;;;;68.20;27.37;;;4.00;99.90;;;;;;5031629;28;20214;-73
2021/01/09 10:58:21;;;;;;;71.47;28.77;;;4.00;99.90;;;;;;5030018;28;20207;-74
2021/01/09 11:00:46;;;;;;;68.50;25.20;;;4.00;99.90;;;;;;5029980;28;20503;-73
2021/01/09 11:03:12;;;;;;;56.20;28.50;;;3.70;99.90;;;;;;5030046;28;20264;-74
2021/01/09 11:05:41;;;;;;;53.60;25.23;;;3.80;99.90;;;;;;5041739;28;20178;-74
2021/01/09 11:08:07;;;;;;;62.60;29.07;;;4.00;99.90;;;;;;5042699;28;20202;-73
2021/01/09 11:10:32;;;;;;;64.33;26.97;;;4.10;99.90;;;;;;5031360;28;20410;-74
2021/01/09 11:12:58;;;;;;;63.53;25.90;;;4.20;99.90;;;;;;5030180;28;20661;-73
2021/01/09 11:15:23;;;;;;;55.20;24.70;;;4.30;99.90;;;;;;5031388;28;20229;-73
2021/01/09 11:17:49;;;;;;;59.43;28.90;;;4.40;99.90;;;;;;5041508;28;20191;-73
2021/01/09 11:20:15;;;;;;;60.70;26.90;;;4.40;99.90;;;;;;5049690;28;20172;-73
2021/01/09 11:22:41;;;;;;;52.20;24.63;;;4.40;99.90;;;;;;5032392;28;20186;-73
2021/01/09 11:25:07;;;;;;;57.43;26.13;;;4.50;99.90;;;;;;5031375;28;20418;-73
2021/01/09 11:27:32;;;;;;;56.33;26.67;;;4.50;99.90;;;;;;5030995;28;20175;-73
2021/01/09 11:29:58;;;;;;;66.53;29.90;;;4.30;99.90;;;;;;5031018;28;20425;-74
2021/01/09 11:32:23;;;;;;;51.47;24.93;;;4.40;99.90;;;;;;5030642;28;20199;-73
2021/01/09 11:34:50;;;;;;;41.37;20.80;;;4.30;99.90;;;;;;5036611;28;20171;-73
2021/01/09 11:37:15;;;;;;;57.33;23.03;;;4.40;99.90;;;;;;5033640;28;20190;-73
2021/01/09 11:39:41;;;;;;;65.97;27.33;;;4.70;99.90;;;;;;5031320;28;21077;-73
2021/01/09 11:42:07;;;;;;;57.33;26.90;;;5.00;99.90;;;;;;5030951;28;20170;-73
2021/01/09 11:44:33;;;;;;;44.10;24.10;;;5.00;99.90;;;;;;5031411;28;20286;-72
2021/01/09 11:46:58;;;;;;;50.03;23.47;;;5.10;99.90;;;;;;5036719;28;20426;-73
2021/01/09 11:49:25;;;;;;;62.43;22.93;;;5.30;99.90;;;;;;5031242;28;20410;-73
2021/01/09 11:51:53;;;;;;;47.07;21.67;;;5.30;99.90;;;;;;5030656;28;20167;-73
2021/01/09 11:54:18;;;;;;;54.33;24.17;;;5.20;99.90;;;;;;5033595;28;20568;-73
2021/01/09 11:56:44;;;;;;;51.87;23.23;;;5.20;99.90;;;;;;5038637;28;20516;-73
2021/01/09 11:59:09;;;;;;;47.63;24.53;;;5.20;99.90;;;;;;5035790;28;20203;-73
2021/01/09 12:01:37;;;;;;;49.13;23.10;;;5.00;99.90;;;;;;5034367;28;20179;-73
2021/01/09 12:04:03;;;;;;;52.73;21.93;;;5.20;99.90;;;;;;5034093;28;20198;-73
2021/01/09 12:06:29;;;;;;;42.50;23.70;;;5.20;99.90;;;;;;5033275;28;20403;-73
2021/01/09 12:08:55;;;;;;;41.70;23.00;;;5.30;99.90;;;;;;5034309;28;20528;-72
2021/01/09 12:11:21;;;;;;;45.63;22.93;;;5.20;99.90;;;;;;5034256;28;20168;-73
2021/01/09 12:13:47;;;;;;;48.47;22.10;;;5.20;99.90;;;;;;5034466;28;20195;-73
2021/01/09 12:16:12;;;;;;;47.33;21.77;;;5.10;99.90;;;;;;5034401;28;20417;-73
2021/01/09 12:18:38;;;;;;;40.47;21.30;;;5.20;99.90;;;;;;5036462;28;20496;-73
2021/01/09 12:21:04;;;;;;;47.23;22.90;;;5.10;99.90;;;;;;5046756;28;20225;-73
2021/01/09 12:23:29;;;;;;;42.10;21.80;;;5.10;99.90;;;;;;5035182;28;20590;-73
2021/01/09 12:25:55;;;;;;;39.40;21.20;;;4.90;99.90;;;;;;5034153;28;20176;-72
2021/01/09 12:28:21;;;;;;;43.87;21.47;;;4.60;99.90;;;;;;5041555;28;20207;-73
2021/01/09 12:30:50;;;;;;;48.50;22.37;;;4.60;99.90;;;;;;5032734;28;20174;-73
2021/01/09 12:33:16;;;;;;;41.33;20.37;;;4.50;99.90;;;;;;5034048;28;20196;-73
2021/01/09 12:35:43;;;;;;;44.77;21.93;;;4.30;99.90;;;;;;5033911;28;20421;-73
2021/01/09 12:38:09;;;;;;;45.60;20.67;;;4.30;99.90;;;;;;5033590;28;20541;-73
2021/01/09 12:40:35;;;;;;;39.90;20.77;;;4.00;99.90;;;;;;5045731;28;20835;-73
2021/01/09 12:43:01;;;;;;;54.80;23.63;;;3.90;99.90;;;;;;5033272;28;20198;-73